Christoval, Texas
Current Conditions -  °F | °C
As of 9:51 AM on Thursday 27 Nov 2014 (Local Time) from KSJT Reporting Station
Clear Clear  
Wind Chill: 43°   Ceiling: Unl
Heat Index: 47°   Visibility: 10mi
Dew Point: 34°   Wind: 8mph
Humidity: 61%   Direction: 80°E
Pressure: 30.53"   Gusts: NA
Location:  31.19°N, 100.5°W
Report Text: KSJT 271551Z 08007KT 10SM CLR 08/01 A3053 RMK AO2 SLP341 T00830011
Loading
Personal Weather Stations






























Interactive Weather Map New forecast layout! Learn more

10-Day Weather Forecast

Advertisements
Track Severe Weather on mobile